Time;durP1;ratioP1;P1;durP2;ratioP2;P2;SDS_P1;SDS_P2;PMS_P1;PMS_P2;Temp;Humidity;BMP_temperature;BMP_pressure;BME280_temperature;BME280_humidity;BME280_pressure;Samples;Min_cycle;Max_cycle;Signal;HPM_P1;HPM_P2
2023/07/28 00:01:32;;;;;;;10.45;7.90;;;;;;;15.98;100.00;100334.03;5016749;28;20026;-92
2023/07/28 00:04:01;;;;;;;10.48;8.10;;;;;;;15.99;100.00;100335.72;5005214;28;20398;-91
2023/07/28 00:06:26;;;;;;;11.38;8.45;;;;;;;15.99;100.00;100335.72;5002031;28;20117;-92
2023/07/28 00:08:51;;;;;;;10.45;8.23;;;;;;;15.97;100.00;100338.53;5035298;28;20144;-91
2023/07/28 00:11:17;;;;;;;10.48;8.38;;;;;;;16.00;100.00;100334.72;5005043;28;20523;-92
2023/07/28 00:13:43;;;;;;;12.63;8.35;;;;;;;15.97;100.00;100329.59;5002287;28;20041;-93
2023/07/28 00:16:09;;;;;;;13.00;8.93;;;;;;;16.02;100.00;100332.78;5004302;28;20040;-92
2023/07/28 00:18:35;;;;;;;10.55;8.40;;;;;;;15.91;100.00;100323.78;5002669;28;20132;-92
2023/07/28 00:21:00;;;;;;;10.65;8.27;;;;;;;16.01;100.00;100340.00;5012989;28;20101;-92
2023/07/28 00:23:26;;;;;;;11.32;8.63;;;;;;;16.03;100.00;100331.81;5001427;28;20029;-92
2023/07/28 00:25:51;;;;;;;11.55;9.27;;;;;;;16.01;100.00;100329.25;5004805;28;20038;-92
2023/07/28 00:28:17;;;;;;;13.15;9.18;;;;;;;15.99;100.00;100330.34;5005468;28;20060;-92
2023/07/28 00:30:42;;;;;;;12.65;9.38;;;;;;;16.00;100.00;100330.22;5003006;28;20083;-91
2023/07/28 00:33:08;;;;;;;11.60;8.85;;;;;;;15.91;100.00;100318.41;5002762;28;20034;-92
2023/07/28 00:35:33;;;;;;;11.68;8.75;;;;;;;15.94;100.00;100320.00;5005191;28;20034;-92
2023/07/28 00:37:59;;;;;;;10.82;8.43;;;;;;;15.97;100.00;100326.94;5003319;28;20021;-94
2023/07/28 00:40:24;;;;;;;12.65;9.35;;;;;;;15.94;100.00;100322.69;5010392;28;20478;-92
2023/07/28 00:42:50;;;;;;;10.18;8.52;;;;;;;15.85;100.00;100313.56;5004232;28;20075;-92
2023/07/28 00:45:16;;;;;;;10.98;8.05;;;;;;;16.00;100.00;100326.69;5002056;28;20033;-91
2023/07/28 00:47:42;;;;;;;9.63;8.52;;;;;;;15.93;100.00;100320.97;5015504;28;20034;-92
2023/07/28 00:50:10;;;;;;;10.90;8.50;;;;;;;15.95;100.00;100324.38;5019596;28;20022;-92
2023/07/28 00:52:36;;;;;;;10.00;8.43;;;;;;;15.98;100.00;100332.19;5005854;28;20045;-92
2023/07/28 00:55:02;;;;;;;11.82;9.10;;;;;;;15.97;100.00;100332.28;5007156;28;20033;-92
2023/07/28 00:57:27;;;;;;;11.77;8.65;;;;;;;15.95;100.00;100319.00;5051191;28;20057;-92
2023/07/28 00:59:53;;;;;;;11.02;8.25;;;;;;;16.01;100.00;100325.69;5006377;28;20057;-94
2023/07/28 01:02:19;;;;;;;10.07;8.55;;;;;;;15.98;100.00;100331.34;5039995;28;20650;-94
2023/07/28 01:04:45;;;;;;;10.50;8.25;;;;;;;15.93;100.00;100315.63;5010451;28;20117;-93
2023/07/28 01:07:31;;;;;;;12.45;8.75;;;;;;;15.91;100.00;100317.56;5016837;28;20033;-94
2023/07/28 01:10:08;;;;;;;10.63;8.25;;;;;;;15.90;100.00;100310.50;5035748;28;20037;-93
2023/07/28 01:12:33;;;;;;;10.35;8.18;;;;;;;15.99;100.00;100333.88;5003447;28;20076;-91
2023/07/28 01:14:59;;;;;;;9.88;8.05;;;;;;;15.99;100.00;100333.03;5002949;28;20054;-95
2023/07/28 01:17:24;;;;;;;9.52;7.85;;;;;;;15.96;100.00;100330.59;5014893;28;20053;-92
2023/07/28 01:19:50;;;;;;;9.85;8.02;;;;;;;15.93;100.00;100316.47;5006577;28;20642;-95
2023/07/28 01:22:38;;;;;;;9.63;7.53;;;;;;;16.00;100.00;100326.69;5005162;28;20171;-93
2023/07/28 01:25:23;;;;;;;10.57;7.90;;;;;;;16.00;100.00;100326.69;5036598;28;20463;-93
2023/07/28 01:27:50;;;;;;;12.23;8.43;;;;;;;15.98;100.00;100323.28;5013877;28;20030;-92
2023/07/28 01:30:16;;;;;;;10.73;8.00;;;;;;;15.83;100.00;100302.06;5003799;28;20073;-94
2023/07/28 01:32:42;;;;;;;11.68;8.30;;;;;;;16.01;100.00;100334.63;5001960;28;20171;-94
2023/07/28 01:35:08;;;;;;;10.88;8.80;;;;;;;16.00;100.00;100332.06;5009828;28;20038;-93
2023/07/28 01:37:33;;;;;;;13.07;8.27;;;;;;;15.95;100.00;100321.69;5013748;28;20029;-91
2023/07/28 01:39:58;;;;;;;11.35;7.93;;;;;;;15.99;100.00;100323.16;5003285;28;20036;-92
2023/07/28 01:42:24;;;;;;;11.32;8.43;;;;;;;15.96;100.00;100322.53;5039393;28;20054;-94
2023/07/28 01:44:53;;;;;;;11.50;8.25;;;;;;;16.03;100.00;100337.19;5003769;28;20025;-93
2023/07/28 01:47:19;;;;;;;12.18;7.88;;;;;;;16.04;100.00;100333.50;5009530;28;20029;-91
2023/07/28 01:49:44;;;;;;;10.60;7.85;;;;;;;16.01;100.00;100323.91;5008864;28;20106;-93
2023/07/28 01:52:10;;;;;;;9.98;7.55;;;;;;;16.00;100.00;100329.38;5001070;28;20026;-93
2023/07/28 01:54:35;;;;;;;10.18;7.32;;;;;;;16.01;100.00;100331.06;5052036;28;20129;-93
2023/07/28 01:57:00;;;;;;;10.00;7.55;;;;;;;15.99;100.00;100325.84;5027578;28;21573;-94
2023/07/28 01:59:26;;;;;;;12.18;8.10;;;;;;;15.91;100.00;100307.66;5061535;28;20006;-92
2023/07/28 02:01:51;;;;;;;11.07;7.95;;;;;;;16.02;100.00;100322.06;5061745;28;20010;-94
2023/07/28 02:04:17;;;;;;;11.68;7.80;;;;;;;16.05;100.00;100329.84;5031614;28;20058;-91
2023/07/28 02:06:42;;;;;;;12.95;8.25;;;;;;;16.05;100.00;100335.22;5032296;28;20189;-94
2023/07/28 02:09:07;;;;;;;12.35;8.52;;;;;;;15.82;100.00;100289.63;5032539;28;20292;-92
2023/07/28 02:11:33;;;;;;;12.63;8.57;;;;;;;15.98;100.00;100315.22;5019211;28;20034;-92
2023/07/28 02:13:58;;;;;;;15.70;9.27;;;;;;;15.94;100.00;100311.94;5034003;28;19998;-94
2023/07/28 02:16:24;;;;;;;14.93;9.13;;;;;;;16.03;100.00;100321.06;5043665;28;20022;-93
2023/07/28 02:18:49;;;;;;;16.23;9.77;;;;;;;16.07;100.00;100328.75;5031822;28;20026;-92
2023/07/28 02:21:15;;;;;;;16.95;10.68;;;;;;;15.99;100.00;100317.78;5061169;28;20014;-94
2023/07/28 02:23:41;;;;;;;16.92;10.40;;;;;;;16.07;100.00;100330.59;5031669;28;20032;-93
2023/07/28 02:26:06;;;;;;;17.83;11.32;;;;;;;16.08;100.00;100337.66;5032310;28;20018;-92
2023/07/28 02:28:31;;;;;;;19.38;11.98;;;;;;;15.96;100.00;100320.72;5018418;28;20035;-94
2023/07/28 02:30:57;;;;;;;18.27;11.18;;;;;;;16.03;100.00;100338.03;5032027;28;20014;-93
2023/07/28 02:33:22;;;;;;;20.40;12.07;;;;;;;15.99;100.00;100323.16;5025820;28;20029;-92
2023/07/28 02:35:48;;;;;;;18.88;12.50;;;;;;;15.91;100.00;100314.88;5022894;28;20076;-92
2023/07/28 02:38:13;;;;;;;20.40;12.50;;;;;;;16.07;100.00;100341.31;5015633;28;20459;-93
2023/07/28 02:40:38;;;;;;;22.48;13.40;;;;;;;16.02;100.00;100330.09;5012445;28;20402;-94
2023/07/28 02:43:04;;;;;;;20.50;13.95;;;;;;;16.05;100.00;100335.22;5019779;28;20035;-93
2023/07/28 02:45:29;;;;;;;23.40;14.30;;;;;;;15.91;100.00;100321.09;5013446;28;20038;-92
2023/07/28 02:47:55;;;;;;;22.17;14.43;;;;;;;16.04;100.00;100344.25;5015840;28;20103;-93
2023/07/28 02:50:21;;;;;;;23.55;15.20;;;;;;;15.96;100.00;100335.97;5002015;28;20316;-94
2023/07/28 02:52:46;;;;;;;26.35;15.48;;;;;;;16.08;100.00;100351.06;5026027;28;20486;-92
2023/07/28 02:55:12;;;;;;;26.30;16.33;;;;;;;16.02;100.00;100339.00;5009321;28;20021;-91
2023/07/28 02:57:37;;;;;;;22.50;15.10;;;;;;;15.99;100.00;100333.88;5026581;28;20112;-93
2023/07/28 03:00:05;;;;;;;24.38;15.00;;;;;;;16.10;100.00;100355.34;5005787;28;20067;-92
2023/07/28 03:02:31;;;;;;;26.90;16.65;;;;;;;16.09;100.00;100364.38;5010532;28;20031;-92
2023/07/28 03:04:56;;;;;;;26.52;16.48;;;;;;;16.03;100.00;100346.06;4998862;28;20036;-92
2023/07/28 03:07:21;;;;;;;28.13;16.90;;;;;;;16.11;100.00;100361.56;5007966;28;20092;-93
2023/07/28 03:09:47;;;;;;;28.33;17.40;;;;;;;16.00;100.00;100348.16;5019457;28;20040;-93
2023/07/28 03:12:12;;;;;;;30.83;17.95;;;;;;;15.88;100.00;100324.03;5012338;28;20434;-93
2023/07/28 03:14:38;;;;;;;32.67;19.10;;;;;;;15.86;100.00;100325.97;5010978;28;20029;-93
2023/07/28 03:17:03;;;;;;;30.67;18.55;;;;;;;16.07;100.00;100358.28;5008499;28;20201;-94
2023/07/28 03:19:29;;;;;;;33.15;19.35;;;;;;;16.08;100.00;100362.66;5009015;28;20018;-93
2023/07/28 03:21:54;;;;;;;32.92;19.42;;;;;;;15.99;100.00;100351.81;5015672;28;20144;-92
2023/07/28 03:24:20;;;;;;;32.30;19.52;;;;;;;16.13;100.00;100362.28;5015278;28;20073;-92
2023/07/28 03:26:46;;;;;;;34.33;21.02;;;;;;;16.06;100.00;100358.41;5004686;28;20029;-95
2023/07/28 03:29:11;;;;;;;32.47;20.42;;;;;;;15.82;100.00;100321.84;5006577;28;20026;-92
2023/07/28 03:31:36;;;;;;;34.88;20.60;;;;;;;16.10;100.00;100367.91;5018456;28;20036;-93
2023/07/28 03:34:03;;;;;;;36.38;20.63;;;;;;;16.09;100.00;100371.56;5005717;28;20036;-96
2023/07/28 03:36:29;;;;;;;34.70;20.52;;;;;;;16.10;100.00;100363.41;5011248;28;20029;-94
2023/07/28 03:38:54;;;;;;;33.92;20.08;;;;;;;16.09;100.00;100363.50;5042318;28;20037;-93
2023/07/28 03:41:20;;;;;;;32.53;20.30;;;;;;;16.09;100.00;100367.06;4996823;28;20054;-93
2023/07/28 03:43:46;;;;;;;32.15;20.50;;;;;;;15.90;100.00;100340.84;5016619;28;20029;-93
2023/07/28 03:46:11;;;;;;;33.33;21.17;;;;;;;16.09;100.00;100382.31;5005461;28;20024;-92
2023/07/28 03:48:37;;;;;;;31.67;20.52;;;;;;;16.07;100.00;100384.28;5012211;28;20029;-93
2023/07/28 03:51:02;;;;;;;32.83;21.25;;;;;;;16.11;100.00;100389.25;5002508;28;20399;-93
2023/07/28 03:53:28;;;;;;;31.73;21.30;;;;;;;15.99;100.00;100368.78;5011916;28;20120;-93
2023/07/28 03:55:57;;;;;;;33.78;21.45;;;;;;;16.05;100.00;100383.53;5018174;28;20088;-93
2023/07/28 03:58:26;;;;;;;32.20;20.92;;;;;;;16.11;100.00;100391.94;5003191;28;20221;-94
2023/07/28 04:00:53;;;;;;;30.02;21.02;;;;;;;16.11;100.00;100396.47;5007689;28;20021;-91
2023/07/28 04:03:19;;;;;;;31.27;20.65;;;;;;;16.04;100.00;100382.69;5007642;28;20058;-93
2023/07/28 04:05:44;;;;;;;28.73;20.65;;;;;;;16.05;100.00;100383.53;5017559;28;20065;-92
2023/07/28 04:08:09;;;;;;;30.73;21.17;;;;;;;16.10;100.00;100392.94;5010337;28;20041;-92
2023/07/28 04:10:35;;;;;;;29.52;20.50;;;;;;;15.81;100.00;100346.13;4994748;28;20144;-94
2023/07/28 04:13:00;;;;;;;28.90;19.73;;;;;;;15.99;100.00;100374.16;5016996;28;20025;-91
2023/07/28 04:15:26;;;;;;;29.92;20.77;;;;;;;16.09;100.00;100385.88;5006942;28;20404;-92
2023/07/28 04:17:51;;;;;;;31.77;21.95;;;;;;;16.09;100.00;100384.97;5000800;28;20184;-93
2023/07/28 04:20:16;;;;;;;30.55;21.23;;;;;;;16.11;100.00;100386.59;5013783;28;20026;-92
2023/07/28 04:22:42;;;;;;;34.75;22.95;;;;;;;16.08;100.00;100378.75;5003009;28;20060;-93
2023/07/28 04:25:07;;;;;;;35.38;23.17;;;;;;;16.13;100.00;100370.34;5002823;28;20069;-92
2023/07/28 04:27:33;;;;;;;39.08;23.67;;;;;;;16.15;100.00;100376.44;5004031;28;20053;-92
2023/07/28 04:29:58;;;;;;;35.97;24.45;;;;;;;16.04;100.00;100363.88;5006767;28;20032;-91
2023/07/28 04:32:24;;;;;;;39.75;24.83;;;;;;;16.00;100.00;100361.56;5007629;28;20491;-92
2023/07/28 04:34:51;;;;;;;37.85;24.65;;;;;;;16.14;100.00;100383.66;4996828;28;20029;-93
2023/07/28 04:37:17;;;;;;;41.88;26.25;;;;;;;16.17;100.00;100385.22;5005524;28;20585;-91
2023/07/28 04:39:42;;;;;;;35.78;25.17;;;;;;;15.95;100.00;100343.16;5012558;28;20112;-92
2023/07/28 04:42:08;;;;;;;40.28;26.48;;;;;;;16.21;100.00;100386.66;5012144;28;20034;-92
2023/07/28 04:44:34;;;;;;;39.30;26.38;;;;;;;16.11;100.00;100367.78;5006809;28;20038;-93
2023/07/28 04:46:59;;;;;;;35.33;25.83;;;;;;;16.20;100.00;100387.66;5011739;28;20048;-92
2023/07/28 04:49:25;;;;;;;40.28;27.67;;;;;;;16.24;100.00;100393.63;5021830;28;20029;-92
2023/07/28 04:51:51;;;;;;;39.08;27.08;;;;;;;15.99;100.00;100354.50;5021059;28;20026;-92
2023/07/28 04:54:17;;;;;;;40.25;28.10;;;;;;;16.19;100.00;100386.81;5025322;28;20084;-92
2023/07/28 04:56:42;;;;;;;37.47;26.95;;;;;;;16.07;100.00;100369.00;5035945;28;20018;-92
2023/07/28 04:59:07;;;;;;;39.50;29.88;;;;;;;16.16;100.00;100386.19;5030114;28;20030;-92
2023/07/28 05:01:33;;;;;;;35.00;26.73;;;;;;;16.03;100.00;100364.03;5025107;28;20030;-93
2023/07/28 05:03:59;;;;;;;36.42;27.50;;;;;;;16.10;100.00;100376.81;5026416;28;20210;-92
2023/07/28 05:06:24;;;;;;;36.13;26.15;;;;;;;16.23;100.00;100398.16;5019852;28;20059;-94
2023/07/28 05:08:50;;;;;;;33.35;25.23;;;;;;;16.22;100.00;100396.47;5023003;28;20498;-91
2023/07/28 05:11:15;;;;;;;33.35;25.33;;;;;;;16.17;100.00;100395.94;5040224;28;20010;-92
2023/07/28 05:13:40;;;;;;;34.72;26.38;;;;;;;16.22;100.00;100407.19;5022892;28;20494;-93
2023/07/28 05:16:06;;;;;;;39.53;27.42;;;;;;;16.26;100.00;100416.72;5019537;28;20026;-93
2023/07/28 05:18:31;;;;;;;32.95;25.85;;;;;;;16.27;100.00;100415.72;5016463;28;20048;-94
2023/07/28 05:20:57;;;;;;;35.65;27.08;;;;;;;16.17;100.00;100394.13;5015107;28;20796;-93
2023/07/28 05:23:22;;;;;;;38.78;28.92;;;;;;;16.31;100.00;100414.50;5019297;28;20052;-92
2023/07/28 05:25:47;;;;;;;42.08;30.48;;;;;;;16.22;100.00;100401.84;5019017;28;20040;-92
2023/07/28 05:28:13;;;;;;;48.95;34.30;;;;;;;16.33;100.00;100419.72;5018144;28;20042;-93
2023/07/28 05:30:38;;;;;;;45.08;32.75;;;;;;;16.37;100.00;100426.56;5021662;28;20029;-92
2023/07/28 05:33:04;;;;;;;48.53;34.88;;;;;;;16.33;100.00;100417.91;5011492;28;20372;-92
2023/07/28 05:35:29;;;;;;;52.42;35.67;;;;;;;16.37;100.00;100422.03;5020044;28;20022;-91
2023/07/28 05:37:55;;;;;;;61.35;39.45;;;;;;;16.37;100.00;100415.81;5029508;28;20478;-91
2023/07/28 05:40:21;;;;;;;56.60;38.35;;;;;;;16.50;100.00;100435.31;5018720;28;20030;-92
2023/07/28 05:42:46;;;;;;;56.15;37.75;;;;;;;16.55;100.00;100434.94;5019662;28;20057;-89
2023/07/28 05:45:12;;;;;;;56.22;38.15;;;;;;;16.38;100.00;100412.16;5016500;28;20037;-90
2023/07/28 05:47:37;;;;;;;56.50;37.72;;;;;;;16.48;100.00;100418.50;5009347;28;20018;-89
2023/07/28 05:50:04;;;;;;;50.22;34.75;;;;;;;16.55;100.00;100426.88;5022360;28;20144;-89
2023/07/28 05:52:30;;;;;;;54.95;35.85;;;;;;;16.54;100.00;100422.50;5007940;28;20022;-89
2023/07/28 05:54:55;;;;;;;49.97;34.00;;;;;;;16.44;100.00;100407.13;5013172;28;20048;-92
2023/07/28 05:57:21;;;;;;;47.47;34.08;;;;;;;16.66;100.00;100437.59;5017183;28;20075;-91
2023/07/28 05:59:47;;;;;;;47.42;32.45;;;;;;;16.60;100.00;100430.06;5011214;28;20053;-92
2023/07/28 06:02:12;;;;;;;48.13;33.22;;;;;;;16.79;100.00;100449.06;5002813;28;20593;-92
2023/07/28 06:04:38;;;;;;;42.53;30.25;;;;;;;16.62;100.00;100415.50;5002426;28;20029;-94
2023/07/28 06:07:03;;;;;;;43.85;30.17;;;;;;;16.88;100.00;100453.66;5004015;28;20505;-92
2023/07/28 06:09:28;;;;;;;41.15;28.05;;;;;;;16.86;100.00;100461.03;5002114;28;20030;-91
2023/07/28 06:11:54;;;;;;;41.10;27.55;;;;;;;16.87;100.00;100460.03;5008463;28;20575;-93
2023/07/28 06:14:19;;;;;;;33.90;23.80;;;;;;;16.69;100.00;100432.84;5000396;28;20036;-92
2023/07/28 06:16:45;;;;;;;31.45;21.45;;;;;;;16.76;100.00;100422.47;5007720;28;20037;-94
2023/07/28 06:19:15;;;;;;;29.00;20.35;;;;;;;16.74;100.00;100419.03;5040371;28;20320;-93
2023/07/28 06:21:41;;;;;;;28.38;20.27;;;;;;;16.95;100.00;100445.97;5002756;28;20111;-93
2023/07/28 06:24:06;;;;;;;26.45;19.50;;;;;;;17.03;100.00;100439.94;5009099;28;20094;-93
2023/07/28 06:26:32;;;;;;;26.65;18.98;;;;;;;16.93;100.00;100415.69;5015381;28;20441;-94
2023/07/28 06:28:57;;;;;;;23.05;16.77;;;;;;;17.14;100.00;100451.50;5007884;28;20025;-94
2023/07/28 06:31:23;;;;;;;19.67;16.55;;;;;;;17.06;100.00;100451.28;5003480;28;20113;-94
2023/07/28 06:33:48;;;;;;;19.98;14.70;;;;;;;17.13;100.00;100451.63;5004827;28;20026;-94
2023/07/28 06:36:13;;;;;;;18.90;13.70;;;;;;;17.16;100.00;100460.28;5022067;28;20025;-91
2023/07/28 06:38:39;;;;;;;17.10;13.43;;;;;;;17.14;100.00;100462.25;5011458;28;20037;-94
2023/07/28 06:41:04;;;;;;;16.33;13.18;;;;;;;17.08;100.00;100452.00;5013824;28;20029;-92
2023/07/28 06:43:30;;;;;;;15.43;12.80;;;;;;;17.12;100.00;100466.06;5019728;28;20486;-93
2023/07/28 06:45:55;;;;;;;16.38;12.38;;;;;;;17.03;100.00;100454.25;5007932;28;20030;-93
2023/07/28 06:48:24;;;;;;;18.27;12.40;;;;;;;17.24;100.00;100470.41;5007547;28;20034;-94
2023/07/28 06:50:49;;;;;;;14.70;12.10;;;;;;;17.30;100.00;100475.25;5011343;28;20030;-92
2023/07/28 06:53:15;;;;;;;12.80;10.93;;;;;;;17.29;100.00;100472.69;5000682;28;20200;-94
2023/07/28 06:55:43;;;;;;;14.15;11.35;;;;;;;17.33;100.00;100474.13;5011082;28;20285;-89
2023/07/28 06:58:09;;;;;;;12.23;10.73;;;;;;;17.29;100.00;100467.31;5001858;28;20165;-90
2023/07/28 07:00:35;;;;;;;11.73;10.50;;;;;;;17.31;100.00;100485.03;5002477;28;20029;-89
2023/07/28 07:03:00;;;;;;;12.43;10.32;;;;;;;17.28;100.00;100471.00;5018595;28;20037;-89
2023/07/28 07:05:26;;;;;;;12.02;10.15;;;;;;;17.35;100.00;100485.63;5012600;28;20494;-90
2023/07/28 07:07:54;;;;;;;13.38;10.95;;;;;;;17.30;100.00;100477.94;5012963;28;20096;-90
2023/07/28 07:10:20;;;;;;;10.82;9.60;;;;;;;17.38;100.00;100504.19;5001873;28;20060;-90
2023/07/28 07:12:46;;;;;;;11.23;9.98;;;;;;;17.41;100.00;100495.88;5030257;28;20137;-89
2023/07/28 07:15:11;;;;;;;11.85;10.13;;;;;;;17.47;100.00;100498.00;5009372;28;20029;-90
2023/07/28 07:17:37;;;;;;;10.77;9.15;;;;;;;17.48;100.00;100504.28;4997398;28;20137;-87
2023/07/28 07:20:03;;;;;;;12.30;9.60;;;;;;;17.37;100.00;100495.25;4996237;28;20518;-88
2023/07/28 07:22:28;;;;;;;11.10;9.88;;;;;;;17.41;100.00;100504.78;5010112;28;20052;-91
2023/07/28 07:24:53;;;;;;;10.52;9.43;;;;;;;17.37;100.00;100502.50;4996369;28;20034;-85
2023/07/28 07:27:19;;;;;;;9.98;8.98;;;;;;;17.40;100.00;100508.47;5000335;28;20116;-85
2023/07/28 07:29:45;;;;;;;9.90;9.00;;;;;;;17.44;100.00;100501.00;4997836;28;20032;-85
2023/07/28 07:32:11;;;;;;;11.10;9.93;;;;;;;17.46;100.00;100503.53;4999380;28;20018;-84
2023/07/28 07:34:38;;;;;;;9.50;8.52;;;;;;;17.52;100.00;100506.56;5000211;28;20036;-84
2023/07/28 07:37:04;;;;;;;9.45;8.38;;;;;;;17.61;100.00;100513.84;5003111;28;20033;-84
2023/07/28 07:39:29;;;;;;;9.43;8.20;;;;;;;17.71;100.00;100511.22;5011742;28;20037;-89
2023/07/28 07:41:55;;;;;;;8.65;7.95;;;;;;;17.75;100.00;100501.94;5009894;28;20124;-87
2023/07/28 07:44:20;;;;;;;9.00;8.20;;;;;;;17.75;100.00;100504.63;5017020;28;20029;-87
2023/07/28 07:46:45;;;;;;;8.88;8.07;;;;;;;17.81;100.00;100511.34;5014220;28;20094;-88
2023/07/28 07:49:11;;;;;;;8.05;7.25;;;;;;;17.92;100.00;100516.63;5029666;28;20036;-91
2023/07/28 07:51:36;;;;;;;8.48;6.95;;;;;;;17.97;100.00;100502.75;5028289;28;20034;-88
2023/07/28 07:54:01;;;;;;;7.82;6.40;;;;;;;18.11;100.00;100521.28;5042416;28;20030;-92
2023/07/28 07:56:29;;;;;;;6.53;6.03;;;;;;;18.12;100.00;100520.28;5023804;28;20040;-90
2023/07/28 07:58:55;;;;;;;6.70;6.10;;;;;;;18.20;100.00;100520.47;5019216;28;20030;-87
2023/07/28 08:01:21;;;;;;;6.22;5.68;;;;;;;18.24;100.00;100519.19;5024295;28;20022;-90
2023/07/28 08:03:47;;;;;;;6.07;5.55;;;;;;;18.33;100.00;100518.38;5016253;28;20026;-93
2023/07/28 08:06:13;;;;;;;6.22;5.68;;;;;;;18.36;100.00;100517.25;5011928;28;20441;-91
2023/07/28 08:08:39;;;;;;;5.88;5.38;;;;;;;18.33;100.00;100528.31;5012748;28;20139;-90
2023/07/28 08:11:05;;;;;;;6.47;5.88;;;;;;;18.29;100.00;100524.19;5038641;28;20478;-90
2023/07/28 08:13:31;;;;;;;6.25;5.65;;;;;;;18.32;100.00;100511.28;5007573;28;20030;-90
2023/07/28 08:15:56;;;;;;;8.45;6.43;;;;;;;18.37;100.00;100530.59;5004948;28;20041;-90
2023/07/28 08:18:22;;;;;;;7.00;5.47;;;;;;;18.33;100.00;100531.84;5004549;28;20042;-91
2023/07/28 08:20:48;;;;;;;5.70;5.20;;;;;;;18.38;100.00;100529.59;5007256;28;20026;-89
2023/07/28 08:23:14;;;;;;;5.65;5.15;;;;;;;18.39;100.00;100528.63;5003031;28;20053;-91
2023/07/28 08:25:40;;;;;;;5.93;5.43;;;;;;;18.38;100.00;100528.75;5004986;28;20025;-92
2023/07/28 08:28:05;;;;;;;6.38;5.78;;;;;;;18.40;100.00;100529.47;5017422;28;20790;-93
2023/07/28 08:30:32;;;;;;;5.65;5.00;;;;;;;18.40;100.00;100535.72;5005443;28;20033;-89
2023/07/28 08:32:58;;;;;;;5.22;4.72;;;;;;;18.51;100.00;100555.47;4997519;28;20048;-92
2023/07/28 08:35:23;;;;;;;5.65;5.00;;;;;;;18.51;100.00;100523.97;4999637;28;20040;-92
2023/07/28 08:37:49;;;;;;;5.88;5.30;;;;;;;18.61;100.00;100542.88;4996584;28;20026;-92
2023/07/28 08:40:14;;;;;;;5.47;4.97;;;;;;;18.71;100.00;100545.63;5019111;28;20036;-91
2023/07/28 08:42:40;;;;;;;5.82;5.00;;;;;;;18.77;100.00;100551.34;5000431;28;20461;-89
2023/07/28 08:45:08;;;;;;;5.22;4.72;;;;;;;18.83;100.00;100541.84;5000387;28;20598;-89
2023/07/28 08:47:34;;;;;;;4.80;4.45;;;;;;;19.06;100.00;100546.00;4997362;28;20109;-87
2023/07/28 08:49:59;;;;;;;5.25;4.80;;;;;;;19.32;100.00;100549.00;4998282;28;20033;-86
2023/07/28 08:52:25;;;;;;;4.53;4.13;;;;;;;19.48;100.00;100548.44;4998434;28;20034;-86
2023/07/28 08:54:51;;;;;;;5.53;4.65;;;;;;;19.56;100.00;100535.09;5004254;28;20064;-86
2023/07/28 08:57:19;;;;;;;5.10;4.70;;;;;;;19.69;100.00;100544.72;5000195;28;20026;-89
2023/07/28 08:59:47;;;;;;;4.78;4.00;;;;;;;20.02;100.00;100546.97;4997474;28;20072;-90
2023/07/28 09:02:15;;;;;;;4.65;4.20;;;;;;;20.48;100.00;100552.47;5006356;28;20053;-88
2023/07/28 09:04:40;;;;;;;4.72;4.07;;;;;;;20.95;100.00;100517.25;5003264;28;20243;-91
2023/07/28 09:07:06;;;;;;;4.35;3.50;;;;;;;21.53;100.00;100543.91;5006996;28;20022;-89
2023/07/28 09:09:32;;;;;;;3.75;3.45;;;;;;;21.38;100.00;100552.56;5000874;28;20033;-89
2023/07/28 09:11:59;;;;;;;3.50;3.20;;;;;;;21.44;100.00;100559.19;4999640;28;20029;-88
2023/07/28 09:14:25;;;;;;;4.95;3.95;;;;;;;21.51;100.00;100563.00;5002576;28;20037;-89
2023/07/28 09:16:52;;;;;;;3.60;3.30;;;;;;;21.18;100.00;100539.28;5001589;28;20034;-89
2023/07/28 09:19:21;;;;;;;3.42;3.13;;;;;;;21.09;100.00;100555.44;4996749;28;20120;-88
2023/07/28 09:21:58;;;;;;;3.53;3.22;;;;;;;20.99;100.00;100565.50;4988397;28;20499;-89
2023/07/28 09:24:31;;;;;;;4.03;3.63;;;;;;;20.84;100.00;100565.16;4996089;28;20022;-89
2023/07/28 09:26:58;;;;;;;3.67;3.38;;;;;;;20.82;100.00;100566.31;4999097;28;20548;-89
2023/07/28 09:29:26;;;;;;;3.53;3.30;;;;;;;20.80;100.00;100568.31;5002261;28;20113;-87
2023/07/28 09:31:52;;;;;;;3.75;3.42;;;;;;;21.01;100.00;100557.22;4999740;28;20540;-89
2023/07/28 09:34:27;;;;;;;4.05;3.50;;;;;;;21.38;100.00;100555.25;5001477;28;20395;-88
2023/07/28 09:37:00;;;;;;;3.50;3.20;;;;;;;21.64;100.00;100568.00;4999957;28;20029;-89
2023/07/28 09:39:26;;;;;;;3.05;2.85;;;;;;;21.76;100.00;100550.50;5000861;28;20053;-88
2023/07/28 09:41:52;;;;;;;3.30;3.08;;;;;;;21.56;100.00;100555.25;5001117;28;20029;-89
2023/07/28 09:44:17;;;;;;;3.65;3.20;;;;;;;21.55;100.00;100567.09;4999932;28;20029;-89
2023/07/28 09:46:52;;;;;;;4.85;2.95;;;;;;;21.41;100.00;100569.50;5001816;28;20088;-89
2023/07/28 09:49:32;;;;;;;3.05;2.85;;;;;;;21.47;100.00;100568.88;4996147;28;20091;-88
2023/07/28 09:52:05;;;;;;;3.15;2.95;;;;;;;21.54;100.00;100562.69;4999702;28;20014;-89
2023/07/28 09:54:38;;;;;;;3.08;2.83;;;;;;;21.71;100.00;100571.81;5001040;28;20120;-88
2023/07/28 09:57:07;;;;;;;3.10;2.90;;;;;;;22.01;99.78;100575.91;4994581;28;20113;-89
2023/07/28 09:59:37;;;;;;;3.25;2.95;;;;;;;22.00;100.00;100567.97;5010061;28;20029;-88
2023/07/28 10:02:03;;;;;;;3.30;3.00;;;;;;;22.03;100.00;100570.34;4992156;28;20037;-90
2023/07/28 10:04:30;;;;;;;2.83;2.63;;;;;;;22.05;100.00;100573.75;4996325;28;20038;-87
2023/07/28 10:06:56;;;;;;;2.92;2.70;;;;;;;22.22;97.70;100575.59;5002339;28;20109;-89
2023/07/28 10:09:26;;;;;;;2.83;2.63;;;;;;;22.32;96.53;100579.06;4995440;28;20172;-87
2023/07/28 10:11:54;;;;;;;2.35;2.20;;;;;;;22.48;96.94;100589.13;5002534;28;20072;-89
2023/07/28 10:14:34;;;;;;;2.47;2.38;;;;;;;22.85;95.99;100580.63;5005457;28;20368;-90
2023/07/28 10:17:01;;;;;;;2.40;2.20;;;;;;;23.67;89.36;100570.00;4999775;28;20053;-88
2023/07/28 10:19:45;;;;;;;2.05;1.95;;;;;;;25.04;87.77;100580.75;5005454;28;20025;-89
2023/07/28 10:22:11;;;;;;;2.30;2.13;;;;;;;25.28;80.75;100584.34;5003514;28;20772;-90
2023/07/28 10:24:56;;;;;;;2.10;2.00;;;;;;;25.15;85.88;100576.78;5012358;28;20036;-91
2023/07/28 10:27:30;;;;;;;3.30;2.20;;;;;;;24.76;83.08;100582.22;5003145;28;20450;-90
2023/07/28 10:29:58;;;;;;;2.25;1.75;;;;;;;24.33;83.01;100581.66;5000269;28;20088;-85
2023/07/28 10:32:38;;;;;;;2.45;2.25;;;;;;;24.06;88.10;100585.63;5003967;28;20037;-87
2023/07/28 10:35:13;;;;;;;2.53;2.10;;;;;;;24.01;90.03;100582.56;5007472;28;20034;-96
2023/07/28 10:37:41;;;;;;;2.70;2.20;;;;;;;24.30;85.71;100585.56;5023531;28;20026;-88
2023/07/28 10:40:26;;;;;;;2.28;2.17;;;;;;;24.71;85.33;100579.19;5010115;28;20049;-91
2023/07/28 10:42:52;;;;;;;2.78;2.20;;;;;;;24.59;80.26;100593.19;5015499;28;20028;-91
2023/07/28 10:45:18;;;;;;;2.38;2.08;;;;;;;24.59;81.04;100584.16;5014995;28;20029;-92
2023/07/28 10:47:45;;;;;;;1.92;1.67;;;;;;;24.42;78.14;100569.78;5018410;28;20028;-92
2023/07/28 10:50:11;;;;;;;1.63;1.50;;;;;;;24.46;78.22;100573.00;5020222;28;20033;-92
2023/07/28 10:52:43;;;;;;;1.60;1.50;;;;;;;24.46;76.43;100576.56;5014762;28;20032;-91
2023/07/28 10:55:14;;;;;;;2.87;1.80;;;;;;;24.46;74.84;100565.69;5045476;28;20029;-90
2023/07/28 10:57:41;;;;;;;2.05;1.48;;;;;;;24.77;77.35;100573.88;5009888;28;20312;-90
2023/07/28 11:00:07;;;;;;;2.00;1.73;;;;;;;24.88;74.84;100575.38;5001008;28;20160;-90
2023/07/28 11:02:33;;;;;;;2.17;1.60;;;;;;;25.19;74.33;100571.81;5006177;28;20029;-92
2023/07/28 11:05:26;;;;;;;1.67;1.58;;;;;;;25.70;77.33;100564.78;5020934;28;20057;-96
2023/07/28 11:07:55;;;;;;;1.60;1.50;;;;;;;25.89;73.60;100549.00;5052354;28;20025;-92